Time;durP1;ratioP1;P1;durP2;ratioP2;P2;SDS_P1;SDS_P2;PMS_P1;PMS_P2;Temp;Humidity;BMP_temperature;BMP_pressure;BME280_temperature;BME280_humidity;BME280_pressure;Samples;Min_cycle;Max_cycle;Signal;HPM_P1;HPM_P2
2022/12/06 00:02:03;;;;;;;17.67;12.53;;;3.50;99.90;;;;;;5032980;28;20467;-55
2022/12/06 00:04:30;;;;;;;19.13;13.10;;;3.40;99.90;;;;;;5029456;28;20485;-56
2022/12/06 00:06:58;;;;;;;19.57;12.17;;;3.40;99.90;;;;;;5030664;28;20467;-55
2022/12/06 00:09:26;;;;;;;18.87;12.43;;;3.40;99.90;;;;;;5030856;28;20485;-56
2022/12/06 00:11:53;;;;;;;16.10;10.93;;;3.30;99.90;;;;;;5033100;28;20443;-55
2022/12/06 00:14:21;;;;;;;13.70;11.10;;;3.30;99.90;;;;;;5034290;28;20486;-54
2022/12/06 00:16:48;;;;;;;13.40;10.73;;;3.30;99.90;;;;;;5032623;28;20822;-55
2022/12/06 00:19:17;;;;;;;14.80;10.67;;;3.30;99.90;;;;;;5034777;28;20544;-55
2022/12/06 00:21:44;;;;;;;12.97;9.53;;;3.20;99.90;;;;;;5033477;28;20466;-56
2022/12/06 00:24:15;;;;;;;13.63;10.03;;;3.20;99.90;;;;;;5035380;28;20463;-55
2022/12/06 00:26:44;;;;;;;12.13;10.10;;;3.20;99.90;;;;;;5035261;28;20455;-54
2022/12/06 00:29:12;;;;;;;14.70;10.27;;;3.20;99.90;;;;;;5034794;28;20458;-54
2022/12/06 00:31:40;;;;;;;11.10;9.77;;;3.20;99.90;;;;;;5032583;28;20864;-54
2022/12/06 00:34:06;;;;;;;13.30;9.87;;;3.20;99.90;;;;;;5030000;28;20478;-54
2022/12/06 00:36:36;;;;;;;13.13;10.40;;;3.20;99.90;;;;;;5030859;28;20463;-54
2022/12/06 00:39:06;;;;;;;12.83;9.87;;;3.20;99.90;;;;;;5035039;28;20513;-54
2022/12/06 00:41:34;;;;;;;14.70;10.83;;;3.20;99.90;;;;;;5033514;28;20520;-55
2022/12/06 00:44:01;;;;;;;13.30;10.33;;;3.20;99.90;;;;;;5031741;28;20528;-54
2022/12/06 00:46:30;;;;;;;12.90;9.23;;;3.20;99.90;;;;;;5034964;28;20795;-55
2022/12/06 00:48:58;;;;;;;11.50;8.33;;;3.10;99.90;;;;;;5032330;28;20489;-55
2022/12/06 00:51:27;;;;;;;12.30;9.00;;;3.20;99.90;;;;;;5033701;28;20462;-55
2022/12/06 00:53:54;;;;;;;8.80;7.93;;;3.10;99.90;;;;;;5032876;28;20482;-54
2022/12/06 00:56:20;;;;;;;9.93;8.37;;;3.20;99.90;;;;;;5034772;28;20512;-54
2022/12/06 00:58:48;;;;;;;9.90;7.97;;;3.10;99.90;;;;;;5033041;28;20482;-54
2022/12/06 01:01:17;;;;;;;9.73;8.60;;;3.10;99.90;;;;;;5033722;28;20493;-54
2022/12/06 01:03:45;;;;;;;10.10;7.97;;;3.10;99.90;;;;;;5030538;28;20479;-54
2022/12/06 01:06:14;;;;;;;11.87;8.60;;;3.00;99.90;;;;;;5034331;28;20466;-54
2022/12/06 01:08:42;;;;;;;10.47;8.73;;;3.00;99.90;;;;;;5033546;28;20467;-53
2022/12/06 01:11:10;;;;;;;9.67;7.60;;;3.00;99.90;;;;;;5033342;28;20458;-54
2022/12/06 01:13:37;;;;;;;12.07;8.30;;;3.00;99.90;;;;;;5034519;28;20462;-53
2022/12/06 01:16:09;;;;;;;8.13;7.27;;;2.90;99.90;;;;;;5033641;28;20521;-54
2022/12/06 01:18:36;;;;;;;9.03;7.93;;;2.90;99.90;;;;;;5031028;28;20478;-54
2022/12/06 01:21:04;;;;;;;9.03;7.87;;;2.90;99.90;;;;;;5033346;28;20463;-54
2022/12/06 01:23:31;;;;;;;8.90;7.60;;;2.90;99.90;;;;;;5042925;28;20482;-54
2022/12/06 01:25:58;;;;;;;9.23;7.77;;;2.80;99.90;;;;;;5055048;28;20496;-55
2022/12/06 01:28:24;;;;;;;11.50;8.37;;;2.90;99.90;;;;;;5050595;28;20464;-54
2022/12/06 01:30:51;;;;;;;8.20;7.40;;;2.80;99.90;;;;;;5032439;28;20458;-55
2022/12/06 01:33:19;;;;;;;9.47;8.47;;;2.90;99.90;;;;;;5032346;28;20541;-54
2022/12/06 01:35:45;;;;;;;9.03;7.87;;;2.90;99.90;;;;;;5031013;28;20459;-54
2022/12/06 01:38:12;;;;;;;10.77;8.80;;;2.90;99.90;;;;;;5030968;28;21060;-54
2022/12/06 01:40:40;;;;;;;10.70;7.80;;;2.90;99.90;;;;;;5032675;28;20459;-54
2022/12/06 01:43:25;;;;;;;9.20;8.40;;;2.90;99.90;;;;;;5032535;28;20872;-54
2022/12/06 01:45:52;;;;;;;12.17;9.03;;;2.90;99.90;;;;;;5030011;28;20454;-54
2022/12/06 01:48:23;;;;;;;11.83;9.90;;;2.90;99.90;;;;;;5032819;28;20463;-55
2022/12/06 01:50:50;;;;;;;11.10;8.93;;;2.90;99.90;;;;;;5030754;28;20455;-55
2022/12/06 01:53:18;;;;;;;10.17;8.33;;;2.90;99.90;;;;;;5032095;28;20486;-55
2022/12/06 01:55:46;;;;;;;10.50;9.40;;;2.80;99.90;;;;;;5031929;28;20561;-54
2022/12/06 01:58:18;;;;;;;12.43;10.07;;;2.80;99.90;;;;;;5031705;28;20545;-54
2022/12/06 02:00:45;;;;;;;10.80;8.73;;;2.80;99.90;;;;;;5030883;28;20463;-55
2022/12/06 02:03:18;;;;;;;16.77;11.53;;;2.80;99.90;;;;;;5033156;28;20493;-53
2022/12/06 02:05:46;;;;;;;11.87;9.57;;;2.80;99.90;;;;;;5032931;28;20470;-55
2022/12/06 02:08:13;;;;;;;11.10;9.63;;;2.80;99.90;;;;;;5032471;28;20509;-54
2022/12/06 02:10:40;;;;;;;11.10;9.10;;;2.80;99.90;;;;;;5033961;28;20869;-54
2022/12/06 02:13:07;;;;;;;10.30;8.80;;;2.80;99.90;;;;;;5031951;28;20497;-54
2022/12/06 02:15:41;;;;;;;14.07;10.70;;;2.90;99.90;;;;;;5033479;28;20504;-55
2022/12/06 02:18:12;;;;;;;12.40;9.67;;;2.80;99.90;;;;;;5031526;28;20897;-55
2022/12/06 02:20:44;;;;;;;11.93;9.57;;;2.80;99.90;;;;;;5033068;28;20463;-54
2022/12/06 02:23:38;;;;;;;17.43;11.30;;;2.80;99.90;;;;;;5031868;28;20516;-54
2022/12/06 02:26:28;;;;;;;15.00;11.40;;;2.80;99.90;;;;;;5026882;28;20435;-54
2022/12/06 02:29:21;;;;;;;13.50;10.80;;;2.80;99.90;;;;;;5036880;28;20511;-54
2022/12/06 02:31:57;;;;;;;12.70;11.17;;;2.80;99.90;;;;;;5028504;28;20470;-54
2022/12/06 02:34:33;;;;;;;12.50;11.20;;;2.80;99.90;;;;;;5031337;28;20488;-55
2022/12/06 02:37:03;;;;;;;14.30;11.13;;;2.80;99.90;;;;;;5031954;28;20458;-56
2022/12/06 02:39:37;;;;;;;14.63;11.63;;;2.80;99.90;;;;;;5032891;28;20478;-55
2022/12/06 02:42:08;;;;;;;19.43;12.27;;;2.80;99.90;;;;;;5031854;28;20450;-55
2022/12/06 02:44:38;;;;;;;13.07;10.00;;;2.80;99.90;;;;;;5037491;28;20568;-55
2022/12/06 02:47:10;;;;;;;13.77;10.83;;;2.80;99.90;;;;;;5031645;28;20463;-54
2022/12/06 02:49:43;;;;;;;12.10;10.40;;;2.80;99.90;;;;;;5032355;28;20776;-54
2022/12/06 02:52:10;;;;;;;15.47;8.60;;;2.80;99.90;;;;;;5013333;28;20471;-54
2022/12/06 02:54:38;;;;;;;11.70;10.47;;;2.80;99.90;;;;;;5029769;28;20497;-55
2022/12/06 02:57:04;;;;;;;10.93;9.83;;;2.70;99.90;;;;;;5027734;28;20498;-54
2022/12/06 02:59:31;;;;;;;11.33;9.50;;;2.70;99.90;;;;;;5026927;28;20550;-54
2022/12/06 03:02:01;;;;;;;9.63;8.40;;;2.70;99.90;;;;;;5029604;28;20454;-54
2022/12/06 03:04:47;;;;;;;10.33;9.23;;;2.70;99.90;;;;;;5027817;28;20485;-54
2022/12/06 03:07:31;;;;;;;17.73;9.37;;;2.70;99.90;;;;;;5026570;28;20459;-54
2022/12/06 03:10:14;;;;;;;9.93;9.03;;;2.70;99.90;;;;;;5024146;28;20459;-56
2022/12/06 03:12:50;;;;;;;10.27;9.30;;;2.70;99.90;;;;;;5031355;28;21050;-53
2022/12/06 03:15:28;;;;;;;12.73;9.40;;;2.70;99.90;;;;;;5031626;28;20572;-55
2022/12/06 03:18:01;;;;;;;12.80;8.93;;;2.70;99.90;;;;;;5027153;28;20524;-55
2022/12/06 03:20:41;;;;;;;32.50;8.43;;;2.70;99.90;;;;;;5032191;28;20458;-55
2022/12/06 03:23:11;;;;;;;10.23;8.37;;;2.60;99.90;;;;;;5031109;28;20463;-54
2022/12/06 03:25:39;;;;;;;11.57;8.60;;;2.70;99.90;;;;;;5030116;28;20451;-55
2022/12/06 03:28:08;;;;;;;7.77;6.97;;;2.60;99.90;;;;;;5031685;28;20486;-54
2022/12/06 03:30:35;;;;;;;7.40;6.70;;;2.60;99.90;;;;;;5035732;28;20459;-55
2022/12/06 03:33:03;;;;;;;7.40;6.50;;;2.60;99.90;;;;;;5029549;28;20455;-55
2022/12/06 03:35:34;;;;;;;6.60;5.97;;;2.50;99.90;;;;;;5030479;28;20462;-56
2022/12/06 03:38:06;;;;;;;7.40;6.60;;;2.50;99.90;;;;;;5030996;28;20490;-54
2022/12/06 03:40:36;;;;;;;5.60;5.20;;;2.50;99.90;;;;;;5021207;28;20508;-55
2022/12/06 03:43:04;;;;;;;5.73;5.23;;;2.50;99.90;;;;;;5030593;28;20467;-56
2022/12/06 03:45:38;;;;;;;7.70;7.00;;;2.50;99.90;;;;;;5030258;28;20973;-55
2022/12/06 03:48:10;;;;;;;6.10;5.53;;;2.50;99.90;;;;;;5032963;28;20493;-55
2022/12/06 03:50:41;;;;;;;6.63;5.87;;;2.50;99.90;;;;;;5035701;28;20446;-55
2022/12/06 03:53:08;;;;;;;8.17;6.33;;;2.50;99.90;;;;;;5033163;28;21019;-56
2022/12/06 03:55:35;;;;;;;5.80;5.37;;;2.50;99.90;;;;;;5031253;28;20462;-54
2022/12/06 03:58:02;;;;;;;5.40;4.90;;;2.50;99.90;;;;;;5034014;28;20466;-55
2022/12/06 04:00:28;;;;;;;6.70;6.03;;;2.50;99.90;;;;;;5034049;28;20514;-55
2022/12/06 04:02:55;;;;;;;5.63;5.23;;;2.50;99.90;;;;;;5033436;28;20873;-54
2022/12/06 04:05:21;;;;;;;6.47;5.90;;;2.40;99.90;;;;;;5034831;28;20462;-53
2022/12/06 04:07:49;;;;;;;5.90;5.40;;;2.40;99.90;;;;;;5036165;28;20508;-53
2022/12/06 04:10:16;;;;;;;5.70;5.30;;;2.40;99.90;;;;;;5033278;28;20463;-55
2022/12/06 04:13:00;;;;;;;6.80;6.20;;;2.40;99.90;;;;;;5035283;28;20442;-54
2022/12/06 04:15:29;;;;;;;5.97;5.47;;;2.30;99.90;;;;;;5033023;28;20471;-55
2022/12/06 04:18:12;;;;;;;5.20;4.80;;;2.30;99.90;;;;;;5024445;28;20497;-55
2022/12/06 04:23:30;;;;;;;5.77;5.37;;;2.30;99.90;;;;;;5033768;28;20838;-55
2022/12/06 04:25:57;;;;;;;6.43;5.40;;;2.30;99.90;;;;;;5032557;28;20486;-55
2022/12/06 04:39:22;;;;;;;8.77;5.77;;;2.20;99.90;;;;;;5044104;28;20478;-53
2022/12/06 04:44:33;;;;;;;5.03;4.63;;;2.30;99.90;;;;;;5028057;28;20558;-54
2022/12/06 04:47:00;;;;;;;6.57;6.03;;;2.20;99.90;;;;;;5031768;28;20463;-55
2022/12/06 04:49:27;;;;;;;7.03;6.20;;;2.20;99.90;;;;;;5033458;28;20463;-54
2022/12/06 04:51:53;;;;;;;5.90;5.27;;;2.30;99.90;;;;;;5032469;28;20462;-55
2022/12/06 04:54:22;;;;;;;5.57;5.07;;;2.30;99.90;;;;;;5032518;28;20514;-55
2022/12/06 04:56:49;;;;;;;4.90;4.50;;;2.30;99.90;;;;;;5033521;28;20494;-55
2022/12/06 04:59:15;;;;;;;4.80;4.50;;;2.30;99.90;;;;;;5033436;28;20576;-55
2022/12/06 05:01:42;;;;;;;4.63;4.33;;;2.30;99.90;;;;;;5033242;28;20463;-55
2022/12/06 05:04:09;;;;;;;6.10;5.50;;;2.30;99.90;;;;;;5034348;28;20478;-55
2022/12/06 05:06:35;;;;;;;26.97;6.37;;;2.30;99.90;;;;;;5033677;28;20471;-55
2022/12/06 05:09:02;;;;;;;5.43;5.03;;;2.20;99.90;;;;;;5033018;28;20451;-54
2022/12/06 05:11:30;;;;;;;5.47;4.97;;;2.20;99.90;;;;;;5033620;28;20458;-55
2022/12/06 05:13:57;;;;;;;4.73;4.33;;;2.30;99.90;;;;;;5033406;28;20872;-55
2022/12/06 05:16:23;;;;;;;4.50;4.13;;;2.20;99.90;;;;;;5031945;28;20520;-56
2022/12/06 05:18:50;;;;;;;4.77;4.40;;;2.20;99.90;;;;;;5034047;28;20462;-55
2022/12/06 05:21:19;;;;;;;4.70;4.40;;;2.30;99.90;;;;;;5033139;28;20564;-55
2022/12/06 05:23:45;;;;;;;5.43;5.03;;;2.20;99.90;;;;;;5029187;28;20510;-54
2022/12/06 05:26:14;;;;;;;5.30;4.90;;;2.20;99.90;;;;;;5029515;28;20490;-55
2022/12/06 05:28:43;;;;;;;16.90;15.20;;;2.20;99.90;;;;;;5031549;28;20466;-54
2022/12/06 05:31:10;;;;;;;5.27;4.87;;;2.30;99.90;;;;;;5030109;28;20462;-54
2022/12/06 05:33:37;;;;;;;4.70;4.30;;;2.30;99.90;;;;;;5031925;28;20564;-55
2022/12/06 05:36:07;;;;;;;4.50;4.20;;;2.30;99.90;;;;;;5032824;28;20461;-55
2022/12/06 05:38:34;;;;;;;6.00;5.50;;;2.20;99.90;;;;;;5028544;28;20485;-54
2022/12/06 05:41:01;;;;;;;5.47;5.07;;;2.20;99.90;;;;;;5020953;28;20480;-55
2022/12/06 05:43:28;;;;;;;4.77;4.40;;;2.20;99.90;;;;;;5033713;28;21011;-55
2022/12/06 05:45:56;;;;;;;4.70;4.10;;;2.20;99.90;;;;;;5024185;28;20470;-55
2022/12/06 05:48:23;;;;;;;4.07;3.67;;;2.20;99.90;;;;;;5026868;28;20462;-55
2022/12/06 05:50:50;;;;;;;4.80;4.40;;;2.20;99.90;;;;;;5026757;28;20931;-55
2022/12/06 05:53:17;;;;;;;4.87;4.57;;;2.10;99.90;;;;;;5026298;28;20537;-55
2022/12/06 05:55:44;;;;;;;4.20;3.90;;;2.20;99.90;;;;;;5025515;28;20495;-54
2022/12/06 05:58:11;;;;;;;4.93;4.50;;;2.10;99.90;;;;;;5025027;28;20552;-55
2022/12/06 06:00:38;;;;;;;33.47;22.30;;;2.10;99.90;;;;;;5024380;28;20939;-54
2022/12/06 06:03:06;;;;;;;13.03;9.10;;;2.10;99.90;;;;;;5025233;28;20917;-55
2022/12/06 06:05:33;;;;;;;13.40;8.70;;;2.10;99.90;;;;;;5028635;28;20540;-54
2022/12/06 06:07:59;;;;;;;6.13;5.50;;;2.10;99.90;;;;;;5025385;28;20470;-54
2022/12/06 06:10:26;;;;;;;11.60;8.63;;;2.00;99.90;;;;;;5025118;28;20450;-55
2022/12/06 06:12:53;;;;;;;9.10;6.70;;;2.10;99.90;;;;;;5032751;28;20516;-55
2022/12/06 06:15:19;;;;;;;5.57;5.07;;;2.10;99.90;;;;;;5031412;28;20470;-55
2022/12/06 06:17:46;;;;;;;4.40;4.10;;;2.20;99.90;;;;;;5027279;28;20513;-54
2022/12/06 06:20:14;;;;;;;4.50;4.10;;;2.10;99.90;;;;;;5021903;28;20568;-56
2022/12/06 06:22:41;;;;;;;5.13;4.63;;;2.10;99.90;;;;;;5022981;28;20536;-55
2022/12/06 06:25:09;;;;;;;5.07;4.50;;;2.10;99.90;;;;;;5024370;28;20482;-55
2022/12/06 06:27:37;;;;;;;5.17;4.77;;;2.20;99.90;;;;;;5039477;28;20497;-55
2022/12/06 06:30:04;;;;;;;5.77;5.27;;;2.10;99.90;;;;;;5034162;28;20463;-56
2022/12/06 06:32:31;;;;;;;5.57;5.07;;;2.10;99.90;;;;;;5030959;28;20462;-54
2022/12/06 06:34:58;;;;;;;5.73;5.10;;;2.10;99.90;;;;;;5043461;28;21625;-55
2022/12/06 06:37:25;;;;;;;5.93;4.87;;;2.20;99.90;;;;;;5040165;28;20528;-55
2022/12/06 06:39:52;;;;;;;5.30;4.80;;;2.20;99.90;;;;;;5036357;28;20518;-54
2022/12/06 06:42:19;;;;;;;5.70;5.07;;;2.20;99.90;;;;;;5036867;28;21043;-54
2022/12/06 06:44:45;;;;;;;7.50;5.53;;;2.20;99.90;;;;;;5032160;28;20518;-55
2022/12/06 06:47:12;;;;;;;6.00;5.50;;;2.30;99.90;;;;;;5023750;28;20585;-55
2022/12/06 06:49:39;;;;;;;4.73;4.23;;;2.30;99.90;;;;;;5030750;28;20864;-55
2022/12/06 06:52:06;;;;;;;4.77;4.47;;;2.20;99.90;;;;;;5035441;28;20541;-55
2022/12/06 06:54:34;;;;;;;4.83;4.47;;;2.20;99.90;;;;;;5035940;28;20485;-54
2022/12/06 06:57:01;;;;;;;5.60;5.20;;;2.20;99.90;;;;;;5015598;28;20604;-55
2022/12/06 06:59:28;;;;;;;6.13;5.60;;;2.20;99.90;;;;;;5024855;28;20463;-55
2022/12/06 07:01:55;;;;;;;5.50;5.00;;;2.20;99.90;;;;;;5041301;28;20819;-55
2022/12/06 07:04:21;;;;;;;4.97;4.67;;;2.20;99.90;;;;;;5031514;28;21048;-54
2022/12/06 07:06:48;;;;;;;5.63;5.00;;;2.20;99.90;;;;;;5032948;28;20527;-55
2022/12/06 07:09:15;;;;;;;5.77;5.27;;;2.20;99.90;;;;;;5027260;28;20551;-54
2022/12/06 07:11:43;;;;;;;6.53;5.93;;;2.10;99.90;;;;;;5029790;28;20946;-54
2022/12/06 07:14:09;;;;;;;6.50;5.90;;;2.10;99.90;;;;;;5034244;28;20489;-55
2022/12/06 07:16:36;;;;;;;5.60;5.10;;;2.20;99.90;;;;;;5027512;28;20481;-54
2022/12/06 07:19:03;;;;;;;6.37;5.30;;;2.10;99.90;;;;;;5017750;28;20817;-55
2022/12/06 07:21:29;;;;;;;6.00;5.43;;;2.20;99.90;;;;;;5019553;28;21069;-54
2022/12/06 07:23:58;;;;;;;5.00;4.47;;;2.20;99.90;;;;;;5025193;28;20510;-54
2022/12/06 07:26:25;;;;;;;6.00;5.40;;;2.20;99.90;;;;;;5030370;28;20461;-61
2022/12/06 07:28:53;;;;;;;5.50;5.00;;;2.20;99.90;;;;;;5030199;28;20944;-54
2022/12/06 07:31:22;;;;;;;6.53;5.93;;;2.20;99.90;;;;;;5036201;28;20493;-54
2022/12/06 07:33:52;;;;;;;7.90;5.70;;;2.20;99.90;;;;;;5027648;28;20514;-54
2022/12/06 07:36:19;;;;;;;6.07;5.47;;;2.20;99.90;;;;;;5034172;28;20462;-54
2022/12/06 07:38:49;;;;;;;10.57;8.27;;;2.20;99.90;;;;;;5025432;28;21021;-54
2022/12/06 07:46:46;;;;;;;6.87;6.23;;;2.20;99.90;;;;;;5027075;28;21486;-54
2022/12/06 07:49:14;;;;;;;5.33;4.83;;;2.20;99.90;;;;;;5036220;28;20971;-54
2022/12/06 07:51:41;;;;;;;5.57;5.07;;;2.20;99.90;;;;;;5030982;28;20545;-54
2022/12/06 07:54:08;;;;;;;6.23;4.80;;;2.20;99.90;;;;;;5019877;28;20479;-54
2022/12/06 07:56:34;;;;;;;4.47;4.07;;;2.10;99.90;;;;;;5031070;28;20462;-54
2022/12/06 07:59:02;;;;;;;7.40;5.00;;;2.20;99.90;;;;;;5018461;28;20883;-55
2022/12/06 08:01:29;;;;;;;6.15;4.40;;;2.20;99.90;;;;;;5023038;28;20470;-55
2022/12/06 08:03:56;;;;;;;5.77;4.63;;;2.20;99.90;;;;;;5016318;28;20278;-55
2022/12/06 08:06:22;;;;;;;5.23;4.83;;;2.20;99.90;;;;;;5017253;28;20463;-55
2022/12/06 08:08:49;;;;;;;6.33;5.73;;;2.20;99.90;;;;;;5021258;28;20535;-55
2022/12/06 08:11:16;;;;;;;6.37;5.40;;;2.20;99.90;;;;;;5023810;28;20484;-57
2022/12/06 08:13:42;;;;;;;5.63;5.13;;;2.30;99.90;;;;;;5021808;28;20503;-55
2022/12/06 08:16:12;;;;;;;6.47;5.63;;;2.20;99.90;;;;;;5013663;28;20459;-55
2022/12/06 08:18:39;;;;;;;8.10;6.10;;;2.20;99.90;;;;;;5019549;28;20489;-55
2022/12/06 08:21:07;;;;;;;6.50;5.90;;;2.20;99.90;;;;;;5031015;28;20501;-55
2022/12/06 08:23:34;;;;;;;5.60;5.10;;;2.30;99.90;;;;;;5019442;28;20514;-55
2022/12/06 08:26:04;;;;;;;5.20;4.70;;;2.30;99.90;;;;;;5023247;28;20544;-53
2022/12/06 08:28:31;;;;;;;6.07;5.50;;;2.30;99.90;;;;;;5029607;28;20458;-54
2022/12/06 08:30:58;;;;;;;8.27;6.50;;;2.30;99.90;;;;;;5025363;28;21138;-55
2022/12/06 08:33:27;;;;;;;6.10;5.10;;;2.40;99.90;;;;;;5033760;28;20474;-55
2022/12/06 08:35:53;;;;;;;7.53;6.00;;;2.30;99.90;;;;;;5033654;28;20462;-55
2022/12/06 08:38:20;;;;;;;6.03;5.23;;;2.40;99.90;;;;;;5035260;28;20877;-55
2022/12/06 08:40:46;;;;;;;13.40;5.73;;;2.30;99.90;;;;;;5034708;28;20536;-53
2022/12/06 08:43:13;;;;;;;7.10;5.80;;;2.40;99.90;;;;;;5033861;28;20451;-55
2022/12/06 08:45:39;;;;;;;4.90;4.50;;;2.30;99.90;;;;;;5037444;28;20536;-55
2022/12/06 08:48:06;;;;;;;5.90;4.43;;;2.30;99.90;;;;;;5030138;28;20486;-56
2022/12/06 08:50:34;;;;;;;4.70;4.30;;;2.20;99.90;;;;;;5042627;28;20544;-55
2022/12/06 08:53:00;;;;;;;5.20;4.80;;;2.20;99.90;;;;;;5045756;28;20470;-55
2022/12/06 08:55:27;;;;;;;5.10;4.57;;;2.20;99.90;;;;;;5042279;28;20466;-55
2022/12/06 08:57:54;;;;;;;6.23;5.70;;;2.10;99.90;;;;;;5030367;28;20486;-54
2022/12/06 09:00:20;;;;;;;5.10;4.70;;;2.20;99.90;;;;;;5038192;28;20517;-55
2022/12/06 09:02:47;;;;;;;4.53;4.23;;;2.20;99.90;;;;;;5040436;28;20521;-54
2022/12/06 09:05:14;;;;;;;4.23;3.93;;;2.30;99.90;;;;;;5035051;28;20509;-54
2022/12/06 09:07:42;;;;;;;4.37;4.03;;;2.20;99.90;;;;;;5036385;28;20458;-55
2022/12/06 09:10:09;;;;;;;4.57;4.17;;;2.20;99.90;;;;;;5040986;28;20547;-53
2022/12/06 09:12:36;;;;;;;5.00;4.60;;;2.20;99.90;;;;;;5032340;28;20527;-54
2022/12/06 09:15:02;;;;;;;6.77;6.07;;;2.20;99.90;;;;;;5040713;28;20509;-53
2022/12/06 09:17:29;;;;;;;5.33;4.63;;;2.20;99.90;;;;;;5024891;28;20517;-56
2022/12/06 09:19:55;;;;;;;12.53;5.47;;;2.30;99.90;;;;;;5032542;28;20543;-55
2022/12/06 09:22:22;;;;;;;7.97;4.93;;;2.30;99.90;;;;;;5035293;28;20543;-55
2022/12/06 09:24:50;;;;;;;16.60;11.20;;;2.30;99.90;;;;;;5032973;28;20482;-54
2022/12/06 09:27:17;;;;;;;21.37;16.83;;;2.30;99.90;;;;;;5039469;28;20547;-54
2022/12/06 09:29:44;;;;;;;13.20;9.17;;;2.40;99.90;;;;;;5034258;28;20520;-55
2022/12/06 09:32:11;;;;;;;24.70;17.63;;;2.30;99.90;;;;;;5038972;28;20496;-56
2022/12/06 09:34:37;;;;;;;13.83;11.63;;;2.40;99.90;;;;;;5036211;28;20564;-55
2022/12/06 09:37:08;;;;;;;9.97;8.40;;;2.30;99.90;;;;;;5024715;28;20539;-54
2022/12/06 09:39:39;;;;;;;8.03;5.90;;;2.30;99.90;;;;;;5034856;28;20498;-55
2022/12/06 09:42:28;;;;;;;5.80;5.30;;;2.40;99.90;;;;;;5034228;28;20517;-55
2022/12/06 09:45:10;;;;;;;4.97;4.57;;;2.40;99.90;;;;;;5038442;28;20536;-54
2022/12/06 09:47:49;;;;;;;6.60;6.00;;;2.40;99.90;;;;;;5028459;28;20517;-54
2022/12/06 09:50:24;;;;;;;5.00;4.60;;;2.50;99.90;;;;;;5034167;28;20489;-55
2022/12/06 09:53:09;;;;;;;5.40;5.00;;;2.50;99.90;;;;;;5030769;28;20489;-53
2022/12/06 09:55:50;;;;;;;5.07;4.67;;;2.50;99.90;;;;;;5030165;28;20847;-54
2022/12/06 09:58:29;;;;;;;8.30;6.00;;;2.40;99.90;;;;;;5023295;28;20463;-54
2022/12/06 10:01:11;;;;;;;5.27;4.87;;;2.40;99.90;;;;;;5024135;28;20506;-53
2022/12/06 10:03:58;;;;;;;5.10;4.70;;;2.40;99.90;;;;;;5026443;28;22668;-54
2022/12/06 10:06:32;;;;;;;6.17;4.70;;;2.40;99.90;;;;;;5025819;28;20570;-54
2022/12/06 10:09:10;;;;;;;5.23;4.83;;;2.50;99.90;;;;;;5022050;28;21035;-55
2022/12/06 10:11:50;;;;;;;4.97;4.47;;;2.50;99.90;;;;;;5023382;28;20461;-54
2022/12/06 10:14:33;;;;;;;4.50;4.10;;;2.40;99.90;;;;;;5022723;28;20513;-54
2022/12/06 10:17:05;;;;;;;5.60;4.37;;;2.40;99.90;;;;;;5024547;28;20459;-54
2022/12/06 10:19:43;;;;;;;3.80;3.60;;;2.50;99.90;;;;;;5026234;28;20453;-54
2022/12/06 10:22:17;;;;;;;5.03;4.63;;;2.60;99.90;;;;;;5021059;28;20526;-55
2022/12/06 10:24:54;;;;;;;4.50;4.13;;;2.60;99.90;;;;;;5022170;28;20485;-53
2022/12/06 10:27:26;;;;;;;4.87;4.27;;;2.60;99.90;;;;;;5031533;28;20825;-54
2022/12/06 10:29:57;;;;;;;4.13;3.53;;;2.60;99.90;;;;;;5023118;28;20490;-54
2022/12/06 10:32:39;;;;;;;5.60;4.63;;;2.70;99.90;;;;;;5018201;28;20481;-54
2022/12/06 10:35:17;;;;;;;5.87;4.20;;;2.80;99.90;;;;;;5026065;28;20469;-53
2022/12/06 10:37:59;;;;;;;3.43;3.23;;;2.80;99.90;;;;;;5034134;28;20982;-54
2022/12/06 10:40:30;;;;;;;7.67;5.43;;;2.80;99.90;;;;;;5037750;28;20489;-55
2022/12/06 10:43:03;;;;;;;9.57;5.10;;;2.80;99.90;;;;;;5020839;28;21001;-54
2022/12/06 10:48:27;;;;;;;4.97;4.17;;;2.70;99.90;;;;;;5020658;28;20501;-54
2022/12/06 10:51:00;;;;;;;4.77;4.37;;;2.80;99.90;;;;;;5023894;28;20483;-54
2022/12/06 10:53:31;;;;;;;4.73;4.33;;;2.90;99.90;;;;;;5029425;28;20539;-54
2022/12/06 10:56:02;;;;;;;4.17;3.87;;;2.90;99.90;;;;;;5014018;28;20545;-54
2022/12/06 10:58:34;;;;;;;3.57;3.27;;;2.90;99.90;;;;;;5020634;28;20903;-56
2022/12/06 11:01:06;;;;;;;4.27;3.87;;;2.80;99.90;;;;;;5020916;28;20657;-54
2022/12/06 11:03:39;;;;;;;4.07;3.77;;;2.80;99.90;;;;;;5021880;28;22897;-54
2022/12/06 11:06:11;;;;;;;4.33;3.93;;;2.80;99.90;;;;;;5037994;28;20498;-54
2022/12/06 11:08:42;;;;;;;3.63;3.37;;;2.80;99.90;;;;;;5035974;28;20491;-53
2022/12/06 11:11:14;;;;;;;3.60;3.40;;;2.80;99.90;;;;;;5036490;28;20458;-54
2022/12/06 11:13:46;;;;;;;3.00;2.83;;;2.80;99.90;;;;;;5035810;28;20474;-54
2022/12/06 11:16:20;;;;;;;4.10;3.80;;;2.80;99.90;;;;;;5033304;28;20581;-53
2022/12/06 11:18:48;;;;;;;4.90;3.97;;;2.80;99.90;;;;;;5027925;28;21058;-55
2022/12/06 11:21:24;;;;;;;3.70;3.50;;;2.80;99.90;;;;;;5035134;28;20508;-54
2022/12/06 11:23:56;;;;;;;4.13;3.87;;;2.80;99.90;;;;;;5039098;28;20481;-54
2022/12/06 11:26:32;;;;;;;3.77;3.57;;;2.70;99.90;;;;;;5046088;28;21009;-55
2022/12/06 11:29:04;;;;;;;5.27;4.70;;;2.80;99.90;;;;;;5037091;28;20493;-55
2022/12/06 11:31:35;;;;;;;5.03;4.73;;;2.80;99.90;;;;;;5024261;28;20521;-55
2022/12/06 11:34:03;;;;;;;4.37;3.97;;;2.80;99.90;;;;;;5033403;28;20474;-55
2022/12/06 11:36:30;;;;;;;4.37;4.17;;;2.80;99.90;;;;;;5026180;28;20945;-55
2022/12/06 11:38:59;;;;;;;2.97;2.87;;;2.80;99.90;;;;;;5034365;28;20458;-55
2022/12/06 11:41:28;;;;;;;3.57;3.27;;;2.70;99.90;;;;;;5029816;28;20478;-55
2022/12/06 11:43:56;;;;;;;3.50;3.30;;;2.70;99.90;;;;;;5039509;28;20853;-53
2022/12/06 11:46:23;;;;;;;3.00;2.80;;;2.70;99.90;;;;;;5045264;28;20820;-54
2022/12/06 11:48:52;;;;;;;2.53;2.43;;;2.70;99.90;;;;;;5035050;28;20827;-55
2022/12/06 11:51:20;;;;;;;2.63;2.53;;;2.60;99.90;;;;;;5034777;28;20540;-55
2022/12/06 11:53:56;;;;;;;3.30;3.10;;;2.70;99.90;;;;;;5037874;28;20556;-55
2022/12/06 11:56:25;;;;;;;3.40;3.20;;;2.70;99.90;;;;;;5048115;28;20465;-54
2022/12/06 11:59:00;;;;;;;3.40;3.20;;;2.70;99.90;;;;;;5036831;28;20977;-55
2022/12/06 12:01:38;;;;;;;3.10;3.00;;;2.60;99.90;;;;;;5034108;28;20513;-55
2022/12/06 12:04:23;;;;;;;3.50;3.30;;;2.60;99.90;;;;;;5032610;28;20502;-55
2022/12/06 12:06:54;;;;;;;5.60;3.20;;;2.70;99.90;;;;;;5023843;28;20546;-55
2022/12/06 12:09:28;;;;;;;4.00;3.50;;;2.70;99.90;;;;;;5027306;28;20556;-55
2022/12/06 12:12:00;;;;;;;3.70;3.40;;;2.60;99.90;;;;;;5050330;22;21029;-54
2022/12/06 12:14:33;;;;;;;2.83;2.73;;;2.70;99.90;;;;;;5047223;28;20966;-53
2022/12/06 12:17:03;;;;;;;3.40;3.20;;;2.70;99.90;;;;;;5047482;28;20544;-54
2022/12/06 12:19:38;;;;;;;3.07;2.90;;;2.60;99.90;;;;;;5047249;28;21117;-54
2022/12/06 12:22:19;;;;;;;3.00;2.90;;;2.70;99.90;;;;;;5044680;28;20545;-53
2022/12/06 12:24:48;;;;;;;3.23;3.03;;;2.70;99.90;;;;;;5027494;28;20826;-55
2022/12/06 12:27:49;;;;;;;2.60;2.50;;;2.70;99.90;;;;;;5025678;28;20498;-53
2022/12/06 12:30:18;;;;;;;3.00;2.70;;;2.70;99.90;;;;;;4960837;28;20466;-54
2022/12/06 12:32:46;;;;;;;3.57;3.37;;;2.70;99.90;;;;;;4968376;28;21141;-54
2022/12/06 12:35:26;;;;;;;2.97;2.87;;;2.60;99.90;;;;;;4994954;28;20483;-53
2022/12/06 12:37:56;;;;;;;2.93;2.80;;;2.60;99.90;;;;;;5029218;28;20462;-54
2022/12/06 12:40:25;;;;;;;3.13;3.00;;;2.60;99.90;;;;;;5033909;28;20443;-54
2022/12/06 12:42:58;;;;;;;3.53;3.23;;;2.60;99.90;;;;;;5030021;28;20486;-53
2022/12/06 12:45:26;;;;;;;3.33;3.13;;;2.60;99.90;;;;;;5029291;28;20505;-53
2022/12/06 12:47:57;;;;;;;3.33;3.13;;;2.60;99.90;;;;;;5026847;28;20467;-54
2022/12/06 12:50:25;;;;;;;3.17;2.97;;;2.60;99.90;;;;;;5032564;28;20458;-52
2022/12/06 12:52:52;;;;;;;3.13;2.93;;;2.60;99.90;;;;;;5025759;28;20561;-54
2022/12/06 12:55:21;;;;;;;3.67;3.37;;;2.60;99.90;;;;;;5033247;28;20516;-54
2022/12/06 12:57:50;;;;;;;3.80;3.60;;;2.60;99.90;;;;;;5031229;28;20466;-54
2022/12/06 13:00:18;;;;;;;3.17;3.07;;;2.50;99.90;;;;;;5026585;28;20458;-54
2022/12/06 13:02:49;;;;;;;3.63;3.43;;;2.60;99.90;;;;;;5030325;28;20518;-54
2022/12/06 13:05:18;;;;;;;4.10;3.90;;;2.60;99.90;;;;;;5031856;28;20520;-53
2022/12/06 13:07:49;;;;;;;3.70;3.60;;;2.60;99.90;;;;;;5029961;28;20532;-53
2022/12/06 13:10:20;;;;;;;4.03;3.73;;;2.60;99.90;;;;;;5032151;28;20459;-53
2022/12/06 13:12:50;;;;;;;3.30;3.20;;;2.50;99.90;;;;;;5030626;28;20495;-54
2022/12/06 13:15:20;;;;;;;3.73;3.53;;;2.60;99.90;;;;;;5027318;28;20466;-53
2022/12/06 13:17:52;;;;;;;3.40;3.20;;;2.60;99.90;;;;;;5027158;28;20521;-53
2022/12/06 13:20:24;;;;;;;3.03;2.93;;;2.60;99.90;;;;;;5030850;28;20466;-53
2022/12/06 13:22:56;;;;;;;5.03;4.00;;;2.60;99.90;;;;;;5030358;28;20540;-54
2022/12/06 13:25:22;;;;;;;5.13;3.70;;;2.60;99.90;;;;;;5032502;28;20439;-52
2022/12/06 13:27:54;;;;;;;3.20;3.10;;;2.60;99.90;;;;;;5030707;28;20466;-52
2022/12/06 13:30:23;;;;;;;4.00;3.80;;;2.60;99.90;;;;;;5032258;28;20462;-53
2022/12/06 13:32:53;;;;;;;2.97;2.87;;;2.60;99.90;;;;;;5027934;28;20475;-53